Terminal Aerodrome Forecast
Issued by NWS Charleston, WV

Current Version | Previous Version | Graphics & Text | Print | Product List | Glossary On
Versions: 1 2 3 4 5 6 7 8 9 10 11 12 13 14 15 16 17 18 19 20 21 22 23 24 25 26
654
FTUS41 KRLX 150946 AAA
TAFHTS
TAF AMD
KHTS 150946Z 1510/1606 21008KT P6SM SCT015 OVC025
      TEMPO 1510/1514 SCT008 OVC015
     FM151600 22006KT P6SM OVC015
     FM152000 22008KT P6SM RA OVC015
     FM152300 23010KT P6SM RA OVC025
     FM160200 23011G19KT 5SM +RA BR OVC025=

USA.gov is the U.S. government's official web portal to all federal, state and local government web resources and services.